sensor_id;sensor_type;location;lat;lon;timestamp;P1;durP1;ratioP1;P2;durP2;ratioP2
9374;SDS011;4727;51.202;6.344;2022-11-20T00:00:48;19.80;;;17.70;;
9374;SDS011;4727;51.202;6.344;2022-11-20T00:03:14;20.10;;;18.00;;
9374;SDS011;4727;51.202;6.344;2022-11-20T00:05:40;20.63;;;18.10;;
9374;SDS011;4727;51.202;6.344;2022-11-20T00:08:06;24.00;;;18.20;;
9374;SDS011;4727;51.202;6.344;2022-11-20T00:10:32;20.97;;;18.20;;
9374;SDS011;4727;51.202;6.344;2022-11-20T00:13:01;21.57;;;18.37;;
9374;SDS011;4727;51.202;6.344;2022-11-20T00:15:27;21.30;;;18.60;;
9374;SDS011;4727;51.202;6.344;2022-11-20T00:17:53;20.53;;;18.33;;
9374;SDS011;4727;51.202;6.344;2022-11-20T00:20:19;20.90;;;17.37;;
9374;SDS011;4727;51.202;6.344;2022-11-20T00:22:45;20.80;;;18.13;;
9374;SDS011;4727;51.202;6.344;2022-11-20T00:25:11;22.93;;;19.10;;
9374;SDS011;4727;51.202;6.344;2022-11-20T00:27:37;21.60;;;18.63;;
9374;SDS011;4727;51.202;6.344;2022-11-20T00:30:04;20.53;;;18.33;;
9374;SDS011;4727;51.202;6.344;2022-11-20T00:32:30;21.17;;;18.30;;
9374;SDS011;4727;51.202;6.344;2022-11-20T00:34:56;20.97;;;18.30;;
9374;SDS011;4727;51.202;6.344;2022-11-20T00:37:22;20.83;;;17.90;;
9374;SDS011;4727;51.202;6.344;2022-11-20T00:39:48;22.67;;;19.30;;
9374;SDS011;4727;51.202;6.344;2022-11-20T00:42:13;25.47;;;20.97;;
9374;SDS011;4727;51.202;6.344;2022-11-20T00:44:39;24.03;;;20.00;;
9374;SDS011;4727;51.202;6.344;2022-11-20T00:47:05;24.47;;;20.30;;
9374;SDS011;4727;51.202;6.344;2022-11-20T00:49:31;21.53;;;18.43;;
9374;SDS011;4727;51.202;6.344;2022-11-20T00:51:57;23.23;;;18.93;;
9374;SDS011;4727;51.202;6.344;2022-11-20T00:54:23;23.60;;;19.73;;
9374;SDS011;4727;51.202;6.344;2022-11-20T00:56:49;23.03;;;18.43;;
9374;SDS011;4727;51.202;6.344;2022-11-20T00:59:15;22.93;;;20.17;;
9374;SDS011;4727;51.202;6.344;2022-11-20T01:01:41;24.87;;;19.70;;
9374;SDS011;4727;51.202;6.344;2022-11-20T01:04:07;35.63;;;26.73;;
9374;SDS011;4727;51.202;6.344;2022-11-20T01:06:34;28.10;;;22.17;;
9374;SDS011;4727;51.202;6.344;2022-11-20T01:09:03;32.73;;;22.07;;
9374;SDS011;4727;51.202;6.344;2022-11-20T01:11:30;47.73;;;30.43;;
9374;SDS011;4727;51.202;6.344;2022-11-20T01:13:57;43.63;;;27.73;;
9374;SDS011;4727;51.202;6.344;2022-11-20T01:16:34;35.70;;;25.43;;
9374;SDS011;4727;51.202;6.344;2022-11-20T01:19:02;36.57;;;25.60;;
9374;SDS011;4727;51.202;6.344;2022-11-20T01:21:29;32.13;;;23.97;;
9374;SDS011;4727;51.202;6.344;2022-11-20T01:23:56;34.50;;;25.03;;
9374;SDS011;4727;51.202;6.344;2022-11-20T01:26:23;37.40;;;26.60;;
9374;SDS011;4727;51.202;6.344;2022-11-20T01:28:50;36.13;;;24.97;;
9374;SDS011;4727;51.202;6.344;2022-11-20T01:33:45;23.00;;;20.40;;
9374;SDS011;4727;51.202;6.344;2022-11-20T01:36:13;27.47;;;21.37;;
9374;SDS011;4727;51.202;6.344;2022-11-20T01:38:39;32.03;;;24.20;;
9374;SDS011;4727;51.202;6.344;2022-11-20T01:41:05;34.03;;;24.47;;
9374;SDS011;4727;51.202;6.344;2022-11-20T01:43:32;34.83;;;26.63;;
9374;SDS011;4727;51.202;6.344;2022-11-20T01:46:03;33.77;;;24.13;;
9374;SDS011;4727;51.202;6.344;2022-11-20T01:48:36;30.03;;;23.27;;
9374;SDS011;4727;51.202;6.344;2022-11-20T01:51:04;25.83;;;21.90;;
9374;SDS011;4727;51.202;6.344;2022-11-20T01:53:32;24.07;;;21.00;;
9374;SDS011;4727;51.202;6.344;2022-11-20T01:56:00;24.63;;;20.97;;
9374;SDS011;4727;51.202;6.344;2022-11-20T01:58:31;25.57;;;21.53;;
9374;SDS011;4727;51.202;6.344;2022-11-20T02:00:58;23.87;;;19.53;;
9374;SDS011;4727;51.202;6.344;2022-11-20T02:03:25;24.50;;;20.27;;
9374;SDS011;4727;51.202;6.344;2022-11-20T02:05:54;24.30;;;20.40;;
9374;SDS011;4727;51.202;6.344;2022-11-20T02:08:21;25.40;;;20.40;;
9374;SDS011;4727;51.202;6.344;2022-11-20T02:10:47;25.67;;;21.13;;
9374;SDS011;4727;51.202;6.344;2022-11-20T02:13:13;23.80;;;20.00;;
9374;SDS011;4727;51.202;6.344;2022-11-20T02:15:58;22.53;;;19.33;;
9374;SDS011;4727;51.202;6.344;2022-11-20T02:18:24;22.63;;;19.37;;
9374;SDS011;4727;51.202;6.344;2022-11-20T02:20:53;21.60;;;19.13;;
9374;SDS011;4727;51.202;6.344;2022-11-20T02:23:39;24.13;;;20.53;;
9374;SDS011;4727;51.202;6.344;2022-11-20T02:26:06;22.30;;;18.07;;
9374;SDS011;4727;51.202;6.344;2022-11-20T02:28:33;24.27;;;20.03;;
9374;SDS011;4727;51.202;6.344;2022-11-20T02:30:59;23.47;;;19.50;;
9374;SDS011;4727;51.202;6.344;2022-11-20T02:33:26;21.93;;;19.00;;
9374;SDS011;4727;51.202;6.344;2022-11-20T02:35:52;22.10;;;19.17;;
9374;SDS011;4727;51.202;6.344;2022-11-20T02:38:18;26.50;;;20.90;;
9374;SDS011;4727;51.202;6.344;2022-11-20T02:40:44;23.27;;;18.43;;
9374;SDS011;4727;51.202;6.344;2022-11-20T02:43:10;23.50;;;19.57;;
9374;SDS011;4727;51.202;6.344;2022-11-20T02:45:36;24.93;;;20.33;;
9374;SDS011;4727;51.202;6.344;2022-11-20T02:48:02;24.53;;;21.13;;
9374;SDS011;4727;51.202;6.344;2022-11-20T02:50:28;23.67;;;19.27;;
9374;SDS011;4727;51.202;6.344;2022-11-20T02:52:54;22.60;;;19.67;;
9374;SDS011;4727;51.202;6.344;2022-11-20T02:55:20;22.00;;;19.47;;
9374;SDS011;4727;51.202;6.344;2022-11-20T02:57:46;27.00;;;20.33;;
9374;SDS011;4727;51.202;6.344;2022-11-20T03:00:12;24.37;;;19.43;;
9374;SDS011;4727;51.202;6.344;2022-11-20T03:02:38;25.53;;;20.83;;
9374;SDS011;4727;51.202;6.344;2022-11-20T03:05:04;22.97;;;20.03;;
9374;SDS011;4727;51.202;6.344;2022-11-20T03:07:30;23.30;;;19.87;;
9374;SDS011;4727;51.202;6.344;2022-11-20T03:09:56;26.23;;;22.07;;
9374;SDS011;4727;51.202;6.344;2022-11-20T03:12:22;21.73;;;18.80;;
9374;SDS011;4727;51.202;6.344;2022-11-20T03:14:48;25.00;;;20.60;;
9374;SDS011;4727;51.202;6.344;2022-11-20T03:17:15;25.60;;;20.77;;
9374;SDS011;4727;51.202;6.344;2022-11-20T03:19:41;27.00;;;21.37;;
9374;SDS011;4727;51.202;6.344;2022-11-20T03:22:07;26.57;;;20.97;;
9374;SDS011;4727;51.202;6.344;2022-11-20T03:24:33;27.10;;;20.67;;
9374;SDS011;4727;51.202;6.344;2022-11-20T03:26:59;28.70;;;21.10;;
9374;SDS011;4727;51.202;6.344;2022-11-20T03:29:25;23.93;;;19.87;;
9374;SDS011;4727;51.202;6.344;2022-11-20T03:31:51;24.70;;;19.47;;
9374;SDS011;4727;51.202;6.344;2022-11-20T03:34:17;27.50;;;21.53;;
9374;SDS011;4727;51.202;6.344;2022-11-20T03:36:43;28.50;;;20.10;;
9374;SDS011;4727;51.202;6.344;2022-11-20T03:39:09;27.37;;;21.03;;
9374;SDS011;4727;51.202;6.344;2022-11-20T03:41:36;24.37;;;19.90;;
9374;SDS011;4727;51.202;6.344;2022-11-20T03:44:03;23.97;;;19.63;;
9374;SDS011;4727;51.202;6.344;2022-11-20T03:46:30;28.53;;;21.80;;
9374;SDS011;4727;51.202;6.344;2022-11-20T03:48:56;25.77;;;20.80;;
9374;SDS011;4727;51.202;6.344;2022-11-20T03:51:23;27.10;;;20.77;;
9374;SDS011;4727;51.202;6.344;2022-11-20T03:53:50;26.30;;;20.77;;
9374;SDS011;4727;51.202;6.344;2022-11-20T03:56:17;26.53;;;21.57;;
9374;SDS011;4727;51.202;6.344;2022-11-20T03:58:43;25.97;;;21.50;;
9374;SDS011;4727;51.202;6.344;2022-11-20T04:01:11;24.57;;;20.60;;
9374;SDS011;4727;51.202;6.344;2022-11-20T04:03:37;24.97;;;21.23;;
9374;SDS011;4727;51.202;6.344;2022-11-20T04:06:05;27.00;;;20.53;;
9374;SDS011;4727;51.202;6.344;2022-11-20T04:08:31;24.27;;;20.27;;
9374;SDS011;4727;51.202;6.344;2022-11-20T04:11:07;24.80;;;20.23;;
9374;SDS011;4727;51.202;6.344;2022-11-20T04:13:33;24.10;;;20.23;;
9374;SDS011;4727;51.202;6.344;2022-11-20T04:15:59;24.87;;;20.13;;
9374;SDS011;4727;51.202;6.344;2022-11-20T04:18:25;27.70;;;21.33;;
9374;SDS011;4727;51.202;6.344;2022-11-20T04:20:51;25.27;;;21.33;;
9374;SDS011;4727;51.202;6.344;2022-11-20T04:23:17;22.33;;;19.00;;
9374;SDS011;4727;51.202;6.344;2022-11-20T04:25:43;26.07;;;19.63;;
9374;SDS011;4727;51.202;6.344;2022-11-20T04:28:09;23.60;;;19.47;;
9374;SDS011;4727;51.202;6.344;2022-11-20T04:30:35;23.73;;;19.83;;
9374;SDS011;4727;51.202;6.344;2022-11-20T04:33:01;25.13;;;20.03;;
9374;SDS011;4727;51.202;6.344;2022-11-20T04:35:27;24.37;;;20.37;;
9374;SDS011;4727;51.202;6.344;2022-11-20T04:37:53;25.63;;;21.03;;
9374;SDS011;4727;51.202;6.344;2022-11-20T04:40:19;25.57;;;19.90;;
9374;SDS011;4727;51.202;6.344;2022-11-20T04:42:45;23.57;;;20.20;;
9374;SDS011;4727;51.202;6.344;2022-11-20T04:45:11;24.27;;;20.23;;
9374;SDS011;4727;51.202;6.344;2022-11-20T04:47:37;23.43;;;20.33;;
9374;SDS011;4727;51.202;6.344;2022-11-20T04:50:03;25.37;;;20.87;;
9374;SDS011;4727;51.202;6.344;2022-11-20T04:52:29;24.70;;;20.20;;
9374;SDS011;4727;51.202;6.344;2022-11-20T04:54:55;26.87;;;20.33;;
9374;SDS011;4727;51.202;6.344;2022-11-20T04:57:21;24.77;;;21.20;;
9374;SDS011;4727;51.202;6.344;2022-11-20T04:59:50;27.33;;;21.10;;
9374;SDS011;4727;51.202;6.344;2022-11-20T05:02:18;26.00;;;21.03;;
9374;SDS011;4727;51.202;6.344;2022-11-20T05:04:44;27.77;;;21.33;;
9374;SDS011;4727;51.202;6.344;2022-11-20T05:07:10;24.97;;;21.83;;
9374;SDS011;4727;51.202;6.344;2022-11-20T05:09:36;29.03;;;22.40;;
9374;SDS011;4727;51.202;6.344;2022-11-20T05:12:06;27.10;;;21.17;;
9374;SDS011;4727;51.202;6.344;2022-11-20T05:14:32;26.03;;;20.73;;
9374;SDS011;4727;51.202;6.344;2022-11-20T05:16:58;25.70;;;22.23;;
9374;SDS011;4727;51.202;6.344;2022-11-20T05:19:24;26.30;;;21.23;;
9374;SDS011;4727;51.202;6.344;2022-11-20T05:21:56;24.50;;;20.57;;
9374;SDS011;4727;51.202;6.344;2022-11-20T05:24:22;25.17;;;21.37;;
9374;SDS011;4727;51.202;6.344;2022-11-20T05:26:48;25.83;;;21.13;;
9374;SDS011;4727;51.202;6.344;2022-11-20T05:29:14;24.63;;;20.60;;
9374;SDS011;4727;51.202;6.344;2022-11-20T05:31:40;27.30;;;20.50;;
9374;SDS011;4727;51.202;6.344;2022-11-20T05:34:06;24.90;;;20.80;;
9374;SDS011;4727;51.202;6.344;2022-11-20T05:36:33;26.30;;;20.97;;
9374;SDS011;4727;51.202;6.344;2022-11-20T05:38:59;25.27;;;20.70;;
9374;SDS011;4727;51.202;6.344;2022-11-20T05:41:25;25.90;;;20.87;;
9374;SDS011;4727;51.202;6.344;2022-11-20T05:43:51;26.13;;;21.17;;
9374;SDS011;4727;51.202;6.344;2022-11-20T05:46:18;24.80;;;20.20;;
9374;SDS011;4727;51.202;6.344;2022-11-20T05:48:44;26.90;;;20.37;;
9374;SDS011;4727;51.202;6.344;2022-11-20T05:51:11;24.70;;;19.93;;
9374;SDS011;4727;51.202;6.344;2022-11-20T05:53:37;24.73;;;21.30;;
9374;SDS011;4727;51.202;6.344;2022-11-20T05:56:04;26.17;;;21.27;;
9374;SDS011;4727;51.202;6.344;2022-11-20T05:58:31;24.50;;;20.77;;
9374;SDS011;4727;51.202;6.344;2022-11-20T06:01:07;25.80;;;20.47;;
9374;SDS011;4727;51.202;6.344;2022-11-20T06:03:34;24.87;;;20.53;;
9374;SDS011;4727;51.202;6.344;2022-11-20T06:06:00;24.27;;;20.60;;
9374;SDS011;4727;51.202;6.344;2022-11-20T06:08:26;24.93;;;20.23;;
9374;SDS011;4727;51.202;6.344;2022-11-20T06:10:52;24.37;;;20.13;;
9374;SDS011;4727;51.202;6.344;2022-11-20T06:13:18;26.63;;;19.43;;
9374;SDS011;4727;51.202;6.344;2022-11-20T06:15:50;25.73;;;20.57;;
9374;SDS011;4727;51.202;6.344;2022-11-20T06:18:16;26.00;;;20.27;;
9374;SDS011;4727;51.202;6.344;2022-11-20T06:20:42;23.67;;;20.13;;
9374;SDS011;4727;51.202;6.344;2022-11-20T06:23:08;24.13;;;20.27;;
9374;SDS011;4727;51.202;6.344;2022-11-20T06:25:41;25.87;;;20.37;;
9374;SDS011;4727;51.202;6.344;2022-11-20T06:28:08;23.80;;;20.13;;
9374;SDS011;4727;51.202;6.344;2022-11-20T06:30:34;25.30;;;20.20;;
9374;SDS011;4727;51.202;6.344;2022-11-20T06:33:00;25.27;;;19.40;;
9374;SDS011;4727;51.202;6.344;2022-11-20T06:35:26;26.77;;;20.23;;
9374;SDS011;4727;51.202;6.344;2022-11-20T06:37:52;25.73;;;20.80;;
9374;SDS011;4727;51.202;6.344;2022-11-20T06:40:18;27.10;;;20.40;;
9374;SDS011;4727;51.202;6.344;2022-11-20T06:42:44;27.33;;;22.40;;
9374;SDS011;4727;51.202;6.344;2022-11-20T06:45:10;29.17;;;21.70;;
9374;SDS011;4727;51.202;6.344;2022-11-20T06:47:36;28.47;;;22.03;;
9374;SDS011;4727;51.202;6.344;2022-11-20T06:50:02;27.23;;;22.07;;
9374;SDS011;4727;51.202;6.344;2022-11-20T06:52:28;31.33;;;23.20;;
9374;SDS011;4727;51.202;6.344;2022-11-20T06:54:54;28.07;;;22.00;;
9374;SDS011;4727;51.202;6.344;2022-11-20T06:57:20;24.40;;;20.33;;
9374;SDS011;4727;51.202;6.344;2022-11-20T06:59:46;27.27;;;21.73;;
9374;SDS011;4727;51.202;6.344;2022-11-20T07:02:12;28.23;;;21.93;;
9374;SDS011;4727;51.202;6.344;2022-11-20T07:04:38;29.20;;;22.37;;
9374;SDS011;4727;51.202;6.344;2022-11-20T07:07:04;28.13;;;22.97;;
9374;SDS011;4727;51.202;6.344;2022-11-20T07:09:31;25.97;;;21.33;;
9374;SDS011;4727;51.202;6.344;2022-11-20T07:11:57;25.90;;;22.00;;
9374;SDS011;4727;51.202;6.344;2022-11-20T07:14:23;29.37;;;22.80;;
9374;SDS011;4727;51.202;6.344;2022-11-20T07:16:49;27.23;;;21.47;;
9374;SDS011;4727;51.202;6.344;2022-11-20T07:19:15;25.77;;;21.63;;
9374;SDS011;4727;51.202;6.344;2022-11-20T07:21:41;29.60;;;23.17;;
9374;SDS011;4727;51.202;6.344;2022-11-20T07:24:07;28.40;;;21.53;;
9374;SDS011;4727;51.202;6.344;2022-11-20T07:26:33;25.17;;;21.13;;
9374;SDS011;4727;51.202;6.344;2022-11-20T07:28:59;28.50;;;22.83;;
9374;SDS011;4727;51.202;6.344;2022-11-20T07:31:25;29.27;;;21.97;;
9374;SDS011;4727;51.202;6.344;2022-11-20T07:33:51;26.97;;;22.83;;
9374;SDS011;4727;51.202;6.344;2022-11-20T07:36:17;28.47;;;22.37;;
9374;SDS011;4727;51.202;6.344;2022-11-20T07:38:43;26.57;;;21.53;;
9374;SDS011;4727;51.202;6.344;2022-11-20T07:41:08;27.30;;;21.90;;
9374;SDS011;4727;51.202;6.344;2022-11-20T07:43:37;26.00;;;21.33;;
9374;SDS011;4727;51.202;6.344;2022-11-20T07:46:03;25.97;;;21.60;;
9374;SDS011;4727;51.202;6.344;2022-11-20T07:48:29;29.73;;;22.80;;
9374;SDS011;4727;51.202;6.344;2022-11-20T07:50:55;26.90;;;21.70;;
9374;SDS011;4727;51.202;6.344;2022-11-20T07:53:22;27.50;;;22.67;;
9374;SDS011;4727;51.202;6.344;2022-11-20T07:55:48;26.97;;;23.03;;
9374;SDS011;4727;51.202;6.344;2022-11-20T07:58:17;27.00;;;21.93;;
9374;SDS011;4727;51.202;6.344;2022-11-20T08:00:43;28.97;;;24.30;;
9374;SDS011;4727;51.202;6.344;2022-11-20T08:03:09;29.57;;;25.07;;
9374;SDS011;4727;51.202;6.344;2022-11-20T08:05:35;34.80;;;28.53;;
9374;SDS011;4727;51.202;6.344;2022-11-20T08:08:02;32.07;;;27.10;;
9374;SDS011;4727;51.202;6.344;2022-11-20T08:10:28;31.63;;;25.73;;
9374;SDS011;4727;51.202;6.344;2022-11-20T08:12:55;31.90;;;25.47;;
9374;SDS011;4727;51.202;6.344;2022-11-20T08:15:40;30.50;;;24.73;;
9374;SDS011;4727;51.202;6.344;2022-11-20T08:18:07;34.90;;;25.37;;
9374;SDS011;4727;51.202;6.344;2022-11-20T08:20:33;40.40;;;28.07;;
9374;SDS011;4727;51.202;6.344;2022-11-20T08:23:00;43.47;;;29.13;;
9374;SDS011;4727;51.202;6.344;2022-11-20T08:25:27;46.63;;;29.67;;
9374;SDS011;4727;51.202;6.344;2022-11-20T08:27:53;39.63;;;27.63;;
9374;SDS011;4727;51.202;6.344;2022-11-20T08:30:19;46.20;;;29.40;;
9374;SDS011;4727;51.202;6.344;2022-11-20T08:32:45;51.60;;;28.23;;
9374;SDS011;4727;51.202;6.344;2022-11-20T08:35:11;43.50;;;27.17;;
9374;SDS011;4727;51.202;6.344;2022-11-20T08:37:37;40.77;;;26.43;;
9374;SDS011;4727;51.202;6.344;2022-11-20T08:40:06;62.10;;;30.90;;
9374;SDS011;4727;51.202;6.344;2022-11-20T08:42:32;58.57;;;29.53;;
9374;SDS011;4727;51.202;6.344;2022-11-20T08:44:58;57.20;;;29.57;;
9374;SDS011;4727;51.202;6.344;2022-11-20T08:47:24;60.87;;;31.27;;
9374;SDS011;4727;51.202;6.344;2022-11-20T08:49:50;68.80;;;33.87;;
9374;SDS011;4727;51.202;6.344;2022-11-20T08:52:16;68.63;;;32.20;;
9374;SDS011;4727;51.202;6.344;2022-11-20T08:54:42;69.17;;;34.33;;
9374;SDS011;4727;51.202;6.344;2022-11-20T08:57:08;64.57;;;32.67;;
9374;SDS011;4727;51.202;6.344;2022-11-20T08:59:34;62.73;;;31.37;;
9374;SDS011;4727;51.202;6.344;2022-11-20T09:02:00;92.27;;;45.63;;
9374;SDS011;4727;51.202;6.344;2022-11-20T09:04:26;65.20;;;34.80;;
9374;SDS011;4727;51.202;6.344;2022-11-20T09:06:52;69.20;;;38.77;;
9374;SDS011;4727;51.202;6.344;2022-11-20T09:09:18;57.60;;;32.57;;
9374;SDS011;4727;51.202;6.344;2022-11-20T09:11:44;60.13;;;31.10;;
9374;SDS011;4727;51.202;6.344;2022-11-20T09:14:10;56.40;;;32.33;;
9374;SDS011;4727;51.202;6.344;2022-11-20T09:16:36;52.77;;;31.53;;
9374;SDS011;4727;51.202;6.344;2022-11-20T09:19:02;61.60;;;31.73;;
9374;SDS011;4727;51.202;6.344;2022-11-20T09:21:28;58.87;;;31.03;;
9374;SDS011;4727;51.202;6.344;2022-11-20T09:23:54;56.13;;;32.27;;
9374;SDS011;4727;51.202;6.344;2022-11-20T09:26:20;62.20;;;31.43;;
9374;SDS011;4727;51.202;6.344;2022-11-20T09:28:46;53.87;;;30.17;;
9374;SDS011;4727;51.202;6.344;2022-11-20T09:31:22;59.93;;;31.57;;
9374;SDS011;4727;51.202;6.344;2022-11-20T09:33:48;60.40;;;31.77;;
9374;SDS011;4727;51.202;6.344;2022-11-20T09:36:14;57.13;;;31.07;;
9374;SDS011;4727;51.202;6.344;2022-11-20T09:38:41;63.90;;;31.87;;
9374;SDS011;4727;51.202;6.344;2022-11-20T09:41:10;63.93;;;30.60;;
9374;SDS011;4727;51.202;6.344;2022-11-20T09:46:17;61.17;;;30.07;;
9374;SDS011;4727;51.202;6.344;2022-11-20T09:49:00;51.90;;;30.77;;
9374;SDS011;4727;51.202;6.344;2022-11-20T09:56:27;46.33;;;26.70;;
9374;SDS011;4727;51.202;6.344;2022-11-20T09:58:54;45.17;;;26.33;;
9374;SDS011;4727;51.202;6.344;2022-11-20T10:01:21;44.60;;;27.47;;
9374;SDS011;4727;51.202;6.344;2022-11-20T10:06:18;45.60;;;27.17;;
9374;SDS011;4727;51.202;6.344;2022-11-20T10:08:51;50.47;;;29.03;;
9374;SDS011;4727;51.202;6.344;2022-11-20T10:11:35;41.97;;;25.23;;
9374;SDS011;4727;51.202;6.344;2022-11-20T10:14:19;43.13;;;25.77;;
9374;SDS011;4727;51.202;6.344;2022-11-20T10:16:51;45.80;;;25.07;;
9374;SDS011;4727;51.202;6.344;2022-11-20T10:19:40;37.47;;;24.40;;
9374;SDS011;4727;51.202;6.344;2022-11-20T10:24:40;41.27;;;24.87;;
9374;SDS011;4727;51.202;6.344;2022-11-20T10:27:30;38.17;;;23.33;;
9374;SDS011;4727;51.202;6.344;2022-11-20T10:30:01;39.50;;;24.17;;
9374;SDS011;4727;51.202;6.344;2022-11-20T10:32:38;36.70;;;24.17;;
9374;SDS011;4727;51.202;6.344;2022-11-20T10:35:07;34.20;;;22.67;;
9374;SDS011;4727;51.202;6.344;2022-11-20T10:37:41;35.23;;;23.70;;
9374;SDS011;4727;51.202;6.344;2022-11-20T10:42:40;36.57;;;23.03;;
9374;SDS011;4727;51.202;6.344;2022-11-20T10:47:50;29.30;;;20.50;;
9374;SDS011;4727;51.202;6.344;2022-11-20T10:50:18;39.53;;;23.30;;
9374;SDS011;4727;51.202;6.344;2022-11-20T11:00:19;35.77;;;23.23;;
9374;SDS011;4727;51.202;6.344;2022-11-20T11:02:52;33.97;;;22.47;;
9374;SDS011;4727;51.202;6.344;2022-11-20T11:08:03;31.83;;;21.23;;
9374;SDS011;4727;51.202;6.344;2022-11-20T11:11:07;30.43;;;20.93;;
9374;SDS011;4727;51.202;6.344;2022-11-20T11:13:26;30.30;;;21.87;;
9374;SDS011;4727;51.202;6.344;2022-11-20T11:15:52;32.07;;;21.00;;
9374;SDS011;4727;51.202;6.344;2022-11-20T11:18:25;31.67;;;22.20;;
9374;SDS011;4727;51.202;6.344;2022-11-20T11:20:52;40.67;;;27.13;;
9374;SDS011;4727;51.202;6.344;2022-11-20T11:23:32;36.10;;;23.70;;
9374;SDS011;4727;51.202;6.344;2022-11-20T11:25:59;29.83;;;22.10;;
9374;SDS011;4727;51.202;6.344;2022-11-20T11:28:25;34.67;;;21.53;;
9374;SDS011;4727;51.202;6.344;2022-11-20T11:30:52;29.50;;;20.87;;
9374;SDS011;4727;51.202;6.344;2022-11-20T11:33:20;33.87;;;23.33;;
9374;SDS011;4727;51.202;6.344;2022-11-20T11:35:47;36.50;;;24.13;;
9374;SDS011;4727;51.202;6.344;2022-11-20T11:38:17;41.10;;;27.40;;
9374;SDS011;4727;51.202;6.344;2022-11-20T11:40:45;41.10;;;28.93;;
9374;SDS011;4727;51.202;6.344;2022-11-20T11:43:19;33.37;;;22.00;;
9374;SDS011;4727;51.202;6.344;2022-11-20T11:54:15;32.70;;;21.70;;
9374;SDS011;4727;51.202;6.344;2022-11-20T11:56:43;32.27;;;21.93;;
9374;SDS011;4727;51.202;6.344;2022-11-20T11:59:10;31.10;;;21.30;;
9374;SDS011;4727;51.202;6.344;2022-11-20T12:01:39;28.53;;;20.73;;
9374;SDS011;4727;51.202;6.344;2022-11-20T12:04:23;29.57;;;20.53;;
9374;SDS011;4727;51.202;6.344;2022-11-20T12:06:56;27.93;;;21.43;;
9374;SDS011;4727;51.202;6.344;2022-11-20T12:09:24;33.57;;;21.70;;
9374;SDS011;4727;51.202;6.344;2022-11-20T12:14:22;33.30;;;23.10;;
9374;SDS011;4727;51.202;6.344;2022-11-20T12:16:51;49.87;;;35.50;;
9374;SDS011;4727;51.202;6.344;2022-11-20T12:19:19;44.50;;;30.10;;
9374;SDS011;4727;51.202;6.344;2022-11-20T12:21:54;40.17;;;29.10;;
9374;SDS011;4727;51.202;6.344;2022-11-20T12:27:16;39.00;;;27.57;;
9374;SDS011;4727;51.202;6.344;2022-11-20T12:32:34;39.10;;;26.33;;
9374;SDS011;4727;51.202;6.344;2022-11-20T12:40:28;38.87;;;29.70;;
9374;SDS011;4727;51.202;6.344;2022-11-20T12:51:33;36.17;;;24.17;;
9374;SDS011;4727;51.202;6.344;2022-11-20T13:07:00;30.37;;;22.57;;
9374;SDS011;4727;51.202;6.344;2022-11-20T13:09:27;34.87;;;22.67;;
9374;SDS011;4727;51.202;6.344;2022-11-20T13:16:58;34.60;;;24.30;;
9374;SDS011;4727;51.202;6.344;2022-11-20T13:19:25;33.23;;;22.27;;
9374;SDS011;4727;51.202;6.344;2022-11-20T13:21:53;39.13;;;24.93;;
9374;SDS011;4727;51.202;6.344;2022-11-20T13:24:20;34.30;;;24.07;;
9374;SDS011;4727;51.202;6.344;2022-11-20T13:29:36;37.43;;;24.43;;
9374;SDS011;4727;51.202;6.344;2022-11-20T13:34:29;37.70;;;25.20;;
9374;SDS011;4727;51.202;6.344;2022-11-20T13:36:55;38.30;;;25.43;;
9374;SDS011;4727;51.202;6.344;2022-11-20T13:39:26;35.40;;;25.10;;
9374;SDS011;4727;51.202;6.344;2022-11-20T13:41:55;34.93;;;23.97;;
9374;SDS011;4727;51.202;6.344;2022-11-20T13:44:37;37.67;;;23.70;;
9374;SDS011;4727;51.202;6.344;2022-11-20T13:47:04;38.00;;;22.73;;
9374;SDS011;4727;51.202;6.344;2022-11-20T13:49:44;40.90;;;24.43;;
9374;SDS011;4727;51.202;6.344;2022-11-20T13:59:46;36.93;;;23.37;;
9374;SDS011;4727;51.202;6.344;2022-11-20T14:02:18;39.87;;;23.40;;
9374;SDS011;4727;51.202;6.344;2022-11-20T14:04:50;34.03;;;24.03;;
9374;SDS011;4727;51.202;6.344;2022-11-20T14:07:17;32.80;;;22.97;;
9374;SDS011;4727;51.202;6.344;2022-11-20T14:09:51;32.80;;;23.27;;
9374;SDS011;4727;51.202;6.344;2022-11-20T14:12:18;35.27;;;24.73;;
9374;SDS011;4727;51.202;6.344;2022-11-20T14:14:48;34.77;;;23.67;;
9374;SDS011;4727;51.202;6.344;2022-11-20T14:17:17;33.53;;;22.40;;
9374;SDS011;4727;51.202;6.344;2022-11-20T14:19:44;35.13;;;23.80;;
9374;SDS011;4727;51.202;6.344;2022-11-20T14:22:21;38.37;;;23.87;;
9374;SDS011;4727;51.202;6.344;2022-11-20T14:24:48;35.33;;;23.37;;
9374;SDS011;4727;51.202;6.344;2022-11-20T14:27:18;35.87;;;24.73;;
9374;SDS011;4727;51.202;6.344;2022-11-20T14:29:48;37.77;;;25.27;;
9374;SDS011;4727;51.202;6.344;2022-11-20T14:32:16;38.33;;;27.70;;
9374;SDS011;4727;51.202;6.344;2022-11-20T14:34:48;36.07;;;25.20;;
9374;SDS011;4727;51.202;6.344;2022-11-20T14:37:38;37.50;;;23.27;;
9374;SDS011;4727;51.202;6.344;2022-11-20T14:40:20;37.57;;;25.83;;
9374;SDS011;4727;51.202;6.344;2022-11-20T14:42:47;37.70;;;25.67;;
9374;SDS011;4727;51.202;6.344;2022-11-20T14:45:13;34.80;;;24.40;;
9374;SDS011;4727;51.202;6.344;2022-11-20T14:47:39;38.30;;;23.37;;
9374;SDS011;4727;51.202;6.344;2022-11-20T14:50:12;35.67;;;23.80;;
9374;SDS011;4727;51.202;6.344;2022-11-20T14:52:39;37.13;;;23.17;;
9374;SDS011;4727;51.202;6.344;2022-11-20T14:55:24;33.87;;;22.83;;
9374;SDS011;4727;51.202;6.344;2022-11-20T14:57:54;37.57;;;24.07;;
9374;SDS011;4727;51.202;6.344;2022-11-20T15:00:20;37.20;;;23.67;;
9374;SDS011;4727;51.202;6.344;2022-11-20T15:02:48;36.50;;;22.83;;
9374;SDS011;4727;51.202;6.344;2022-11-20T15:05:14;36.47;;;23.27;;
9374;SDS011;4727;51.202;6.344;2022-11-20T15:07:42;35.73;;;22.60;;
9374;SDS011;4727;51.202;6.344;2022-11-20T15:10:19;35.53;;;23.40;;
9374;SDS011;4727;51.202;6.344;2022-11-20T15:12:47;39.37;;;23.90;;
9374;SDS011;4727;51.202;6.344;2022-11-20T15:15:17;43.13;;;24.47;;
9374;SDS011;4727;51.202;6.344;2022-11-20T15:17:44;41.23;;;23.90;;
9374;SDS011;4727;51.202;6.344;2022-11-20T15:20:11;38.37;;;24.17;;
9374;SDS011;4727;51.202;6.344;2022-11-20T15:22:39;42.67;;;25.37;;
9374;SDS011;4727;51.202;6.344;2022-11-20T15:25:11;34.90;;;23.43;;
9374;SDS011;4727;51.202;6.344;2022-11-20T15:27:37;43.47;;;23.77;;
9374;SDS011;4727;51.202;6.344;2022-11-20T15:30:08;40.30;;;24.20;;
9374;SDS011;4727;51.202;6.344;2022-11-20T15:32:37;38.00;;;23.90;;
9374;SDS011;4727;51.202;6.344;2022-11-20T15:35:04;35.60;;;21.07;;
9374;SDS011;4727;51.202;6.344;2022-11-20T15:37:30;36.07;;;23.43;;
9374;SDS011;4727;51.202;6.344;2022-11-20T15:39:55;35.90;;;21.70;;
9374;SDS011;4727;51.202;6.344;2022-11-20T15:42:21;35.97;;;23.87;;
9374;SDS011;4727;51.202;6.344;2022-11-20T15:44:47;34.17;;;22.30;;
9374;SDS011;4727;51.202;6.344;2022-11-20T15:47:13;38.77;;;22.70;;
9374;SDS011;4727;51.202;6.344;2022-11-20T15:49:39;36.30;;;23.93;;
9374;SDS011;4727;51.202;6.344;2022-11-20T15:52:05;36.07;;;23.20;;
9374;SDS011;4727;51.202;6.344;2022-11-20T15:54:34;39.93;;;23.43;;
9374;SDS011;4727;51.202;6.344;2022-11-20T15:57:00;30.57;;;21.93;;
9374;SDS011;4727;51.202;6.344;2022-11-20T15:59:27;37.13;;;22.97;;
9374;SDS011;4727;51.202;6.344;2022-11-20T16:01:53;34.20;;;22.90;;
9374;SDS011;4727;51.202;6.344;2022-11-20T16:04:19;36.43;;;22.00;;
9374;SDS011;4727;51.202;6.344;2022-11-20T16:06:45;38.87;;;23.17;;
9374;SDS011;4727;51.202;6.344;2022-11-20T16:09:11;44.17;;;27.73;;
9374;SDS011;4727;51.202;6.344;2022-11-20T16:11:37;49.37;;;34.70;;
9374;SDS011;4727;51.202;6.344;2022-11-20T16:14:03;51.63;;;32.80;;
9374;SDS011;4727;51.202;6.344;2022-11-20T16:16:48;48.37;;;31.37;;
9374;SDS011;4727;51.202;6.344;2022-11-20T16:19:14;45.23;;;30.17;;
9374;SDS011;4727;51.202;6.344;2022-11-20T16:21:40;46.30;;;29.87;;
9374;SDS011;4727;51.202;6.344;2022-11-20T16:24:07;50.50;;;31.70;;